createdAt,value
2022-12-22T00:00:25.080Z,2.42
2022-12-22T00:03:10.909Z,2.10
2022-12-22T00:05:56.363Z,2.17
2022-12-22T00:08:42.191Z,2.05
2022-12-22T00:11:31.599Z,2.20
2022-12-22T00:14:17.752Z,2.33
2022-12-22T00:17:03.424Z,1.92
2022-12-22T00:19:49.375Z,1.88
2022-12-22T00:22:45.195Z,2.08
2022-12-22T00:25:33.022Z,2.45
2022-12-22T00:28:18.596Z,2.10
2022-12-22T00:31:05.397Z,2.33
2022-12-22T00:33:51.402Z,2.08
2022-12-22T00:36:40.065Z,2.45
2022-12-22T00:39:31.583Z,2.20
2022-12-22T00:42:17.323Z,2.45
2022-12-22T00:45:02.937Z,2.10
2022-12-22T00:47:49.632Z,2.13
2022-12-22T00:50:35.848Z,1.77
2022-12-22T00:53:23.061Z,1.88
2022-12-22T00:56:08.770Z,1.98
2022-12-22T00:58:55.440Z,1.98
2022-12-22T01:01:41.145Z,1.95
2022-12-22T01:04:29.551Z,2.30
2022-12-22T01:07:15.863Z,2.15
2022-12-22T01:10:08.107Z,1.88
2022-12-22T01:12:56.323Z,2.33
2022-12-22T01:15:42.587Z,1.40
2022-12-22T01:18:28.653Z,1.80
2022-12-22T01:21:14.878Z,1.80
2022-12-22T01:24:01.509Z,1.67
2022-12-22T01:26:47.241Z,1.73
2022-12-22T01:29:32.915Z,1.92
2022-12-22T01:32:18.674Z,2.03
2022-12-22T01:35:04.534Z,1.60
2022-12-22T01:37:50.285Z,1.73
2022-12-22T01:40:38.633Z,1.65
2022-12-22T01:43:44.257Z,1.70
2022-12-22T01:46:43.197Z,1.85
2022-12-22T01:49:33.220Z,1.40
2022-12-22T01:52:20.032Z,1.50
2022-12-22T01:55:07.307Z,1.67
2022-12-22T01:57:58.786Z,1.67
2022-12-22T02:00:44.928Z,1.75
2022-12-22T02:03:39.924Z,1.80
2022-12-22T02:06:34.942Z,1.40
2022-12-22T02:09:43.920Z,1.63
2022-12-22T02:12:32.653Z,1.60
2022-12-22T02:15:37.629Z,2.03
2022-12-22T02:18:38.039Z,1.30
2022-12-22T02:21:28.424Z,1.30
2022-12-22T02:24:25.974Z,1.50
2022-12-22T02:27:17.689Z,1.65
2022-12-22T02:30:10.880Z,2.10
2022-12-22T02:33:05.196Z,1.65
2022-12-22T02:36:24.997Z,1.70
2022-12-22T02:39:48.226Z,1.20
2022-12-22T02:42:45.935Z,1.42
2022-12-22T02:45:34.011Z,1.33
2022-12-22T02:48:46.405Z,1.55
2022-12-22T02:51:38.068Z,2.10
2022-12-22T02:54:25.568Z,1.80
2022-12-22T02:57:11.638Z,2.38
2022-12-22T02:59:56.977Z,2.20
2022-12-22T03:02:42.856Z,1.63
2022-12-22T03:05:28.380Z,1.75
2022-12-22T03:08:14.144Z,1.85
2022-12-22T03:10:59.858Z,2.05
2022-12-22T03:13:45.606Z,1.85
2022-12-22T03:16:31.315Z,1.85
2022-12-22T03:19:18.888Z,2.08
2022-12-22T03:22:06.457Z,2.15
2022-12-22T03:24:53.657Z,2.05
2022-12-22T03:27:23.639Z,1.95
2022-12-22T03:29:51.513Z,1.70
2022-12-22T03:32:19.187Z,1.50
2022-12-22T03:34:46.466Z,1.58
2022-12-22T03:37:13.764Z,1.77
2022-12-22T03:39:40.859Z,1.73
2022-12-22T03:42:29.991Z,2.03
2022-12-22T03:45:15.923Z,1.92
2022-12-22T03:47:42.963Z,1.67
2022-12-22T03:50:10.448Z,1.52
2022-12-22T03:52:37.579Z,2.17
2022-12-22T03:55:05.016Z,2.03
2022-12-22T03:57:31.991Z,2.00
2022-12-22T04:00:00.510Z,1.55
2022-12-22T04:02:27.822Z,2.00
2022-12-22T04:04:54.936Z,1.38
2022-12-22T04:07:22.002Z,1.80
2022-12-22T04:10:07.398Z,1.58
2022-12-22T04:12:53.220Z,1.58
2022-12-22T04:15:21.184Z,1.52
2022-12-22T04:17:48.222Z,1.48
2022-12-22T04:20:15.296Z,1.38
2022-12-22T04:22:42.700Z,1.65
2022-12-22T04:25:10.132Z,1.50
2022-12-22T04:27:37.240Z,1.40
2022-12-22T04:30:06.719Z,1.63
2022-12-22T04:32:34.048Z,1.08
2022-12-22T04:35:01.073Z,1.20
2022-12-22T04:37:28.623Z,1.60
2022-12-22T04:39:55.706Z,1.40
2022-12-22T04:42:22.705Z,1.50
2022-12-22T04:44:50.453Z,1.27
2022-12-22T04:47:18.029Z,1.40
2022-12-22T04:49:45.125Z,1.20
2022-12-22T04:52:12.450Z,1.70
2022-12-22T04:54:39.433Z,1.50
2022-12-22T04:57:06.505Z,1.52
2022-12-22T04:59:33.567Z,1.42
2022-12-22T05:02:01.735Z,1.23
2022-12-22T05:04:28.919Z,1.27
2022-12-22T05:06:55.926Z,1.20
2022-12-22T05:09:23.030Z,1.50
2022-12-22T05:11:50.042Z,1.40
2022-12-22T05:14:17.136Z,1.40
2022-12-22T05:16:44.395Z,1.25
2022-12-22T05:19:11.639Z,1.60
2022-12-22T05:21:38.697Z,1.60
2022-12-22T05:24:06.201Z,1.48
2022-12-22T05:26:33.227Z,1.80
2022-12-22T05:29:00.256Z,1.52
2022-12-22T05:31:27.561Z,1.23
2022-12-22T05:33:54.706Z,1.10
2022-12-22T05:36:21.835Z,1.70
2022-12-22T05:38:48.911Z,1.48
2022-12-22T05:41:15.912Z,1.60
2022-12-22T05:43:43.268Z,1.00
2022-12-22T05:46:11.855Z,1.40
2022-12-22T05:48:40.028Z,1.20
2022-12-22T05:51:10.937Z,1.30
2022-12-22T05:53:38.667Z,1.23
2022-12-22T05:56:06.543Z,1.30
2022-12-22T05:58:34.301Z,1.70
2022-12-22T06:01:02.200Z,1.30
2022-12-22T06:03:29.877Z,1.80
2022-12-22T06:05:57.661Z,1.30
2022-12-22T06:08:25.670Z,1.17
2022-12-22T06:10:55.197Z,1.38
2022-12-22T06:13:22.343Z,1.15
2022-12-22T06:15:50.058Z,1.50
2022-12-22T06:18:17.399Z,1.20
2022-12-22T06:20:46.756Z,1.50
2022-12-22T06:23:13.858Z,1.60
2022-12-22T06:25:41.070Z,1.65
2022-12-22T06:28:08.210Z,1.20
2022-12-22T06:30:35.280Z,1.73
2022-12-22T06:33:02.407Z,1.38
2022-12-22T06:35:30.192Z,1.40
2022-12-22T06:37:57.227Z,1.30
2022-12-22T06:40:24.775Z,1.40
2022-12-22T06:43:10.513Z,1.33
2022-12-22T06:45:40.969Z,1.50
2022-12-22T06:48:09.704Z,1.50
2022-12-22T06:50:37.054Z,1.58
2022-12-22T06:53:05.152Z,1.70
2022-12-22T06:55:32.255Z,1.65
2022-12-22T06:57:59.299Z,1.35
2022-12-22T07:00:26.863Z,1.73
2022-12-22T07:02:54.477Z,1.48
2022-12-22T07:05:21.954Z,1.58
2022-12-22T07:07:49.024Z,1.65
2022-12-22T07:10:16.352Z,1.42
2022-12-22T07:12:43.506Z,1.30
2022-12-22T07:15:10.986Z,1.98
2022-12-22T07:17:38.414Z,2.00
2022-12-22T07:20:05.939Z,1.40
2022-12-22T07:22:33.097Z,1.70
2022-12-22T07:25:00.191Z,1.40
2022-12-22T07:27:27.206Z,1.80
2022-12-22T07:29:54.542Z,1.67
2022-12-22T07:32:21.767Z,1.77
2022-12-22T07:34:48.779Z,1.80
2022-12-22T07:37:15.791Z,1.90
2022-12-22T07:39:42.868Z,1.45
2022-12-22T07:42:31.138Z,1.63
2022-12-22T07:44:58.302Z,1.73
2022-12-22T07:47:28.617Z,2.08
2022-12-22T07:50:18.894Z,1.80
2022-12-22T07:52:46.063Z,2.42
2022-12-22T07:55:14.370Z,1.77
2022-12-22T07:57:41.619Z,1.67
2022-12-22T08:00:09.441Z,1.88
2022-12-22T08:02:43.910Z,1.73
2022-12-22T08:05:11.555Z,1.50
2022-12-22T08:07:38.756Z,1.98
2022-12-22T08:10:06.204Z,1.60
2022-12-22T08:12:33.288Z,1.50
2022-12-22T08:15:00.448Z,1.50
2022-12-22T08:17:28.251Z,1.42
2022-12-22T08:19:55.940Z,1.50
2022-12-22T08:22:24.346Z,1.80
2022-12-22T08:24:52.884Z,1.33
2022-12-22T08:27:27.165Z,1.58
2022-12-22T08:30:00.998Z,1.63
2022-12-22T08:34:54.977Z,1.45
2022-12-22T08:37:25.475Z,1.42
2022-12-22T08:39:58.055Z,1.52
2022-12-22T08:42:26.553Z,1.50
2022-12-22T08:44:53.869Z,1.65
2022-12-22T08:47:21.591Z,2.67
2022-12-22T08:49:49.918Z,2.22
2022-12-22T08:52:18.846Z,1.50
2022-12-22T08:54:46.879Z,1.40
2022-12-22T08:57:13.997Z,1.75
2022-12-22T08:59:41.054Z,1.77
2022-12-22T09:02:08.267Z,6.13
2022-12-22T09:04:35.623Z,2.78
2022-12-22T09:07:02.981Z,2.30
2022-12-22T09:09:34.677Z,2.00
2022-12-22T09:12:03.115Z,1.90
2022-12-22T09:14:30.812Z,1.30
2022-12-22T09:16:58.412Z,1.50
2022-12-22T09:19:25.568Z,1.80
2022-12-22T09:21:52.581Z,1.75
2022-12-22T09:24:20.209Z,1.88
2022-12-22T09:26:47.393Z,1.42
2022-12-22T09:29:15.964Z,1.67
2022-12-22T09:31:43.981Z,1.80
2022-12-22T09:34:17.174Z,4.18
2022-12-22T09:36:45.632Z,1.58
2022-12-22T09:39:13.095Z,1.58
2022-12-22T09:41:47.655Z,2.72
2022-12-22T09:44:20.568Z,2.88
2022-12-22T09:46:47.770Z,1.90
2022-12-22T09:49:17.525Z,2.60
2022-12-22T09:51:48.567Z,2.83
2022-12-22T09:54:16.465Z,2.10
2022-12-22T09:56:43.899Z,2.47
2022-12-22T09:59:19.819Z,2.40
2022-12-22T10:02:04.983Z,2.42
2022-12-22T10:05:16.526Z,1.88
2022-12-22T10:07:44.769Z,1.73
2022-12-22T10:10:25.492Z,1.70
2022-12-22T10:12:56.483Z,1.73
2022-12-22T10:15:23.684Z,1.90
2022-12-22T10:18:08.194Z,2.00
2022-12-22T10:20:35.727Z,1.80
2022-12-22T10:23:13.345Z,1.60
2022-12-22T10:29:15.785Z,1.95
2022-12-22T10:32:04.189Z,2.30
2022-12-22T10:34:32.031Z,1.90
2022-12-22T10:37:01.871Z,1.65
2022-12-22T10:39:32.666Z,2.17
2022-12-22T10:42:10.503Z,2.08
2022-12-22T10:44:39.121Z,2.10
2022-12-22T10:47:17.997Z,2.10
2022-12-22T10:49:48.441Z,2.28
2022-12-22T10:52:17.761Z,1.83
2022-12-22T10:54:46.601Z,2.00
2022-12-22T10:57:13.596Z,1.63
2022-12-22T10:59:54.402Z,1.48
2022-12-22T11:02:21.604Z,1.70
2022-12-22T11:04:50.196Z,1.55
2022-12-22T11:07:17.771Z,1.90
2022-12-22T11:09:44.992Z,1.60
2022-12-22T11:12:50.702Z,1.73
2022-12-22T11:15:39.031Z,1.95
2022-12-22T11:18:06.103Z,1.67
2022-12-22T11:20:55.812Z,1.98
2022-12-22T11:23:40.823Z,1.50
2022-12-22T11:26:26.535Z,1.95
2022-12-22T11:29:21.229Z,1.63
2022-12-22T11:31:48.283Z,1.40
2022-12-22T11:34:56.567Z,1.80
2022-12-22T11:37:29.717Z,1.63
2022-12-22T11:40:05.681Z,1.55
2022-12-22T11:43:20.719Z,1.98
2022-12-22T11:49:07.108Z,1.55
2022-12-22T11:51:34.481Z,1.60
2022-12-22T11:54:34.933Z,1.75
2022-12-22T11:57:20.908Z,1.63
2022-12-22T12:00:09.081Z,1.25
2022-12-22T12:03:05.743Z,1.63
2022-12-22T12:05:32.764Z,1.23
2022-12-22T12:08:09.233Z,1.73
2022-12-22T12:10:53.441Z,1.50
2022-12-22T12:13:43.800Z,1.67
2022-12-22T12:16:40.055Z,2.00
2022-12-22T12:19:28.598Z,1.70
2022-12-22T12:21:59.261Z,1.60
2022-12-22T12:24:50.799Z,1.55
2022-12-22T12:27:50.262Z,1.50
2022-12-22T12:33:35.181Z,1.50
2022-12-22T12:36:08.172Z,1.27
2022-12-22T12:39:08.900Z,1.50
2022-12-22T12:41:42.353Z,1.40
2022-12-22T12:44:15.002Z,1.23
2022-12-22T12:46:50.895Z,1.30
2022-12-22T12:49:36.674Z,1.60
2022-12-22T12:52:08.418Z,1.40
2022-12-22T12:54:45.070Z,1.20
2022-12-22T12:57:46.652Z,1.50
2022-12-22T13:00:47.193Z,1.58
2022-12-22T13:04:01.145Z,1.55
2022-12-22T13:06:50.704Z,1.50
2022-12-22T13:12:41.200Z,1.83
2022-12-22T13:15:27.860Z,1.48
2022-12-22T13:17:55.177Z,1.58
2022-12-22T13:20:26.490Z,1.40
2022-12-22T13:22:56.440Z,1.40
2022-12-22T13:25:27.366Z,2.10
2022-12-22T13:27:57.910Z,1.50
2022-12-22T13:30:27.105Z,1.60
2022-12-22T13:32:56.041Z,1.40
2022-12-22T13:35:38.603Z,1.50
2022-12-22T13:38:30.527Z,1.13
2022-12-22T13:41:03.810Z,1.20
2022-12-22T13:43:33.503Z,1.65
2022-12-22T13:46:03.061Z,1.70
2022-12-22T13:48:44.803Z,1.33
2022-12-22T13:51:22.265Z,1.15
2022-12-22T13:54:12.647Z,2.63
2022-12-22T13:56:52.248Z,2.88
2022-12-22T13:59:28.344Z,2.30
2022-12-22T14:02:05.731Z,2.15
2022-12-22T14:04:32.871Z,1.58
2022-12-22T14:07:11.587Z,5.25
2022-12-22T14:09:42.990Z,4.93
2022-12-22T14:12:15.244Z,4.25
2022-12-22T14:14:46.003Z,3.60
2022-12-22T14:17:25.822Z,3.67
2022-12-22T14:19:56.698Z,5.93
2022-12-22T14:22:36.463Z,8.43
2022-12-22T14:25:19.979Z,7.63
2022-12-22T14:27:54.921Z,10.75
2022-12-22T14:30:25.282Z,7.15
2022-12-22T14:32:57.072Z,3.50
2022-12-22T14:35:26.499Z,2.97
2022-12-22T14:38:14.283Z,2.50
2022-12-22T14:40:43.604Z,7.30
2022-12-22T14:43:19.924Z,5.75
2022-12-22T14:45:49.308Z,4.07
2022-12-22T14:48:27.627Z,8.13
2022-12-22T14:50:55.743Z,8.13
2022-12-22T14:53:47.481Z,7.53
2022-12-22T14:56:17.832Z,6.25
2022-12-22T14:58:46.650Z,5.47
2022-12-22T15:01:28.842Z,7.90
2022-12-22T15:04:04.518Z,6.18
2022-12-22T15:06:34.557Z,4.40
2022-12-22T15:09:14.002Z,5.65
2022-12-22T15:11:45.269Z,6.20
2022-12-22T15:14:15.835Z,6.38
2022-12-22T15:16:43.431Z,4.47
2022-12-22T15:19:17.317Z,3.72
2022-12-22T15:21:44.475Z,3.10
2022-12-22T15:24:17.092Z,2.45
2022-12-22T15:26:45.478Z,3.35
2022-12-22T15:29:12.973Z,3.40
2022-12-22T15:31:42.637Z,4.45
2022-12-22T15:34:22.957Z,2.63
2022-12-22T15:36:50.144Z,2.38
2022-12-22T15:39:18.790Z,2.00
2022-12-22T15:41:46.714Z,1.80
2022-12-22T15:44:14.295Z,1.52
2022-12-22T15:46:43.976Z,2.38
2022-12-22T15:49:25.732Z,2.08
2022-12-22T15:51:56.761Z,4.50
2022-12-22T15:54:26.775Z,5.95
2022-12-22T15:56:55.010Z,6.93
2022-12-22T15:59:26.005Z,6.38
2022-12-22T16:02:00.472Z,7.65
2022-12-22T16:04:29.337Z,4.97
2022-12-22T16:06:57.285Z,5.88
2022-12-22T16:09:27.772Z,4.63
2022-12-22T16:11:55.505Z,5.20
2022-12-22T16:14:23.197Z,4.72
2022-12-22T16:16:50.623Z,5.43
2022-12-22T16:19:19.341Z,5.30
2022-12-22T16:21:49.496Z,3.42
2022-12-22T16:24:38.318Z,3.28
2022-12-22T16:27:05.571Z,3.80
2022-12-22T16:29:32.687Z,3.85
2022-12-22T16:32:23.092Z,4.00
2022-12-22T16:34:50.457Z,3.60
2022-12-22T16:37:17.468Z,4.63
2022-12-22T16:39:45.339Z,4.40
2022-12-22T16:45:02.242Z,3.40
2022-12-22T16:47:35.609Z,4.28
2022-12-22T16:50:03.195Z,6.05
2022-12-22T16:52:41.336Z,6.57
2022-12-22T16:55:36.158Z,4.88
2022-12-22T16:58:12.749Z,5.88
2022-12-22T17:00:42.602Z,7.70
2022-12-22T17:03:16.066Z,6.15
2022-12-22T17:05:47.695Z,7.68
2022-12-22T17:08:23.879Z,6.22
2022-12-22T17:10:52.152Z,6.10
2022-12-22T17:13:21.322Z,7.00
2022-12-22T17:15:48.630Z,6.38
2022-12-22T17:18:18.705Z,5.97
2022-12-22T17:20:57.540Z,5.38
2022-12-22T17:23:41.191Z,5.60
2022-12-22T17:26:11.691Z,5.38
2022-12-22T17:28:39.671Z,5.18
2022-12-22T17:31:07.322Z,4.15
2022-12-22T17:33:34.378Z,4.28
2022-12-22T17:36:01.952Z,3.38
2022-12-22T17:38:30.179Z,4.07
2022-12-22T17:40:57.821Z,3.28
2022-12-22T17:43:25.379Z,3.50
2022-12-22T17:45:53.734Z,3.78
2022-12-22T17:48:20.821Z,3.13
2022-12-22T17:50:50.341Z,3.83
2022-12-22T17:53:20.609Z,3.70
2022-12-22T17:58:35.478Z,3.10
2022-12-22T18:01:02.503Z,7.53
2022-12-22T18:03:29.779Z,5.53
2022-12-22T18:05:57.073Z,3.78
2022-12-22T18:08:24.108Z,2.72
2022-12-22T18:10:51.185Z,2.75
2022-12-22T18:13:26.200Z,2.58
2022-12-22T18:15:55.247Z,2.55
2022-12-22T18:18:22.574Z,2.83
2022-12-22T18:21:06.586Z,2.22
2022-12-22T18:23:36.935Z,2.60
2022-12-22T18:26:06.289Z,2.83
2022-12-22T18:28:33.380Z,2.72
2022-12-22T18:31:00.486Z,2.50
2022-12-22T18:33:27.724Z,2.53
2022-12-22T18:35:54.756Z,2.60
2022-12-22T18:38:32.935Z,2.65
2022-12-22T18:41:00.160Z,2.40
2022-12-22T18:43:27.294Z,2.30
2022-12-22T18:45:54.392Z,2.03
2022-12-22T18:48:21.430Z,2.05
2022-12-22T18:50:48.936Z,2.03
2022-12-22T18:53:27.139Z,1.63
2022-12-22T18:55:54.621Z,2.05
2022-12-22T18:58:21.879Z,2.00
2022-12-22T19:00:49.750Z,2.10
2022-12-22T19:03:21.217Z,1.77
2022-12-22T19:05:48.694Z,1.90
2022-12-22T19:08:21.657Z,2.25
2022-12-22T19:10:56.977Z,2.30
2022-12-22T19:13:39.038Z,1.77
2022-12-22T19:16:07.724Z,2.00
2022-12-22T19:18:34.828Z,1.90
2022-12-22T19:21:01.958Z,2.00
2022-12-22T19:23:29.364Z,1.77
2022-12-22T19:26:08.141Z,1.85
2022-12-22T19:28:43.039Z,1.65
2022-12-22T19:31:21.136Z,2.00
2022-12-22T19:33:48.683Z,2.20
2022-12-22T19:36:19.164Z,2.20
2022-12-22T19:38:50.493Z,1.85
2022-12-22T19:41:27.960Z,1.67
2022-12-22T19:43:55.329Z,1.70
2022-12-22T19:46:25.608Z,1.75
2022-12-22T19:48:52.768Z,1.80
2022-12-22T19:51:20.774Z,1.50
2022-12-22T19:53:48.082Z,1.90
2022-12-22T19:56:41.890Z,1.60
2022-12-22T19:59:32.434Z,1.80
2022-12-22T20:02:03.759Z,1.95
2022-12-22T20:04:31.277Z,1.60
2022-12-22T20:06:58.302Z,2.05
2022-12-22T20:09:25.416Z,1.92
2022-12-22T20:11:53.170Z,1.58
2022-12-22T20:14:20.323Z,2.03
2022-12-22T20:16:47.457Z,1.55
2022-12-22T20:19:15.378Z,1.70
2022-12-22T20:21:43.144Z,2.30
2022-12-22T20:24:19.356Z,1.98
2022-12-22T20:26:53.409Z,1.75
2022-12-22T20:29:21.594Z,1.70
2022-12-22T20:31:48.651Z,1.77
2022-12-22T20:34:15.798Z,1.50
2022-12-22T20:36:43.772Z,1.48
2022-12-22T20:39:14.044Z,1.70
2022-12-22T20:41:42.504Z,1.60
2022-12-22T20:44:12.682Z,1.80
2022-12-22T20:46:40.284Z,1.80
2022-12-22T20:49:15.179Z,1.70
2022-12-22T20:51:42.427Z,1.60
2022-12-22T20:54:14.073Z,1.70
2022-12-22T20:56:42.129Z,1.40
2022-12-22T20:59:27.260Z,1.92
2022-12-22T21:01:54.421Z,1.67
2022-12-22T21:04:22.393Z,1.70
2022-12-22T21:06:52.267Z,1.42
2022-12-22T21:09:20.036Z,1.70
2022-12-22T21:11:47.303Z,1.50
2022-12-22T21:14:14.706Z,1.42
2022-12-22T21:16:42.512Z,1.70
2022-12-22T21:19:16.841Z,1.58
2022-12-22T21:21:43.965Z,2.00
2022-12-22T21:24:11.183Z,1.35
2022-12-22T21:26:46.692Z,1.50
2022-12-22T21:29:26.208Z,1.67
2022-12-22T21:31:53.712Z,1.42
2022-12-22T21:34:21.367Z,1.52
2022-12-22T21:36:52.255Z,1.35
2022-12-22T21:39:25.364Z,1.50
2022-12-22T21:42:01.555Z,1.70
2022-12-22T21:44:29.983Z,1.65
2022-12-22T21:46:57.784Z,1.80
2022-12-22T21:49:27.462Z,1.30
2022-12-22T21:51:55.627Z,1.65
2022-12-22T21:54:24.348Z,1.58
2022-12-22T21:56:52.671Z,1.58
2022-12-22T21:59:20.225Z,1.40
2022-12-22T22:01:47.541Z,1.60
2022-12-22T22:04:15.152Z,1.70
2022-12-22T22:06:42.270Z,1.65
2022-12-22T22:09:09.782Z,1.80
2022-12-22T22:11:59.962Z,1.90
2022-12-22T22:14:27.895Z,1.40
2022-12-22T22:16:55.132Z,1.60
2022-12-22T22:19:22.434Z,1.45
2022-12-22T22:21:49.629Z,1.42
2022-12-22T22:24:16.720Z,1.85
2022-12-22T22:26:46.883Z,1.73
2022-12-22T22:29:14.023Z,1.73
2022-12-22T22:31:41.593Z,1.67
2022-12-22T22:34:09.365Z,1.40
2022-12-22T22:36:36.446Z,1.60
2022-12-22T22:39:03.701Z,1.50
2022-12-22T22:41:36.372Z,1.40
2022-12-22T22:44:06.398Z,1.75
2022-12-22T22:46:33.670Z,1.90
2022-12-22T22:49:01.685Z,1.52
2022-12-22T22:51:28.753Z,2.22
2022-12-22T22:53:55.847Z,1.50
2022-12-22T22:56:23.061Z,2.33
2022-12-22T22:58:50.067Z,2.05
2022-12-22T23:01:17.510Z,2.00
2022-12-22T23:03:44.683Z,2.30
2022-12-22T23:06:13.685Z,1.98
2022-12-22T23:08:40.793Z,1.50
2022-12-22T23:11:13.703Z,1.60
2022-12-22T23:13:40.945Z,1.63
2022-12-22T23:16:08.437Z,2.03
2022-12-22T23:18:35.966Z,1.90
2022-12-22T23:21:05.197Z,2.00
2022-12-22T23:23:33.462Z,1.65
2022-12-22T23:26:00.523Z,1.50
2022-12-22T23:28:27.730Z,2.03
2022-12-22T23:30:54.855Z,1.75
2022-12-22T23:33:21.984Z,1.60
2022-12-22T23:35:50.631Z,1.52
2022-12-22T23:38:21.247Z,1.63
2022-12-22T23:40:54.030Z,1.73
2022-12-22T23:43:22.758Z,1.42
2022-12-22T23:45:49.894Z,1.70
2022-12-22T23:48:17.050Z,1.60
2022-12-22T23:50:48.319Z,1.70
2022-12-22T23:53:18.445Z,1.73
2022-12-22T23:55:49.817Z,2.22
2022-12-22T23:58:17.249Z,1.45
